• Join FlightAware (Why Join?)
  • Login
  • US Flag 
04:06PM EDT


 

Airport Tracker/Info


-or-


 

Live Flight TrackerFlight Track Log ✈ N6ZQ ✈ 01-Nov-2013 ✈ KRMN - 1H0

Flight Track Log - Related Links

Times and Time Zones

All times are in EDT time to prevent confusion due to time zone crossing. See the N6ZQ flight status page for this flight to view local times or setup timezone preferences in your user account.

Time Position Orientation Groundspeed Altitude Reporting Facility
EDT Latitude Longitude Course Direction KTS MPH feet Rate Location/Type
12:23PM 38.3333 -77.3500 322° Northwest 177 204 2,200  Level Potomac TRACON
12:24PM 38.3500 -77.3667 322° Northwest 147 169 3,000 720 Climbing Potomac TRACON
12:25PM 38.3667 -77.4167 293° West 171 197 3,700 900 Climbing Potomac TRACON
12:26PM 38.4000 -77.4667 310° West 145 167 4,800 1,080 Climbing Potomac TRACON
12:27PM 38.4167 -77.5167 293° West 131 151 5,900 600 Climbing Potomac TRACON
12:28PM 38.4333 -77.5667 293° West 162 186 6,000  Climbing Potomac TRACON
12:29PM 38.4500 -77.6167 293° West 186 214 6,000  Level Potomac TRACON
12:30PM 38.4833 -77.6667 310° West 190 219 6,000  Level Potomac TRACON
12:31PM 38.5000 -77.7333 288° West 190 219 6,000  Level Potomac TRACON
12:32PM 38.5500 -77.7833 322° Northwest 205 236 6,100  Climbing Potomac TRACON
12:33PM 38.6000 -77.8167 332° Northwest 204 235 6,000 -60 Descending Potomac TRACON
12:34PM 38.6333 -77.8667 310° West 199 229 6,000  Level Potomac TRACON
12:35PM 38.6383 -77.9281 276° West 199 229 6,100 240 Climbing Washington Center
12:36PM 38.6331 -77.9861 263° West 183 211 6,600 720 Climbing Washington Center
12:37PM 38.6303 -78.0286 265° West 155 178 7,600 720 Climbing Washington Center
12:38PM 38.6294 -78.0686 268° West 129 148 8,100 240 Climbing Washington Center
12:39PM 38.6261 -78.1217 265° West 129 148 8,100 -60 Level Washington Center
12:40PM 38.6231 -78.1744 266° West 147 169 8,000 -60 Descending Washington Center
12:41PM 38.6197 -78.2303 266° West 153 176 8,000  Level Washington Center
12:42PM 38.6164 -78.2861 266° West 158 182 8,000  Level Washington Center
12:43PM 38.6131 -78.3389 265° West 158 182 8,000  Level Washington Center
12:44PM 38.6097 -78.3894 265° West 158 182 8,100  Climbing Washington Center
12:45PM 38.6067 -78.4397 266° West 158 182 8,100 240 Level Washington Center
12:46PM 38.6033 -78.4847 265° West 147 169 8,600 420 Climbing Washington Center
12:47PM 38.6003 -78.5272 265° West 136 157 9,000 480 Climbing Washington Center
12:48PM 38.5972 -78.5694 265° West 126 145 9,600 480 Climbing Washington Center
12:49PM 38.5942 -78.6092 264° West 120 138 10,000 240 Climbing Washington Center
12:50PM 38.5908 -78.6569 265° West 127 146 10,100  Climbing Washington Center
12:51PM 38.5894 -78.7125 268° West 141 162 10,000 -60 Descending Washington Center
12:52PM 38.5861 -78.7603 265° West 146 168 10,000  Level Washington Center
12:53PM 38.5825 -78.8133 265° West 151 174 10,000  Level Washington Center
12:54PM 38.5789 -78.8689 265° West 151 174 10,000  Level Washington Center
12:55PM 38.5756 -78.9192 265° West 151 174 10,000  Level Washington Center
12:56PM 38.5719 -78.9722 265° West 151 174 10,000  Level Washington Center
12:57PM 38.5706 -79.0225 268° West 151 174 10,000  Level Washington Center
12:58PM 38.5669 -79.0703 264° West 146 168 10,000  Level Washington Center
12:59PM 38.5614 -79.1231 262° West 146 168 10,000  Level Washington Center
01:00PM 38.5600 -79.1708 268° West 141 162 10,000  Level Washington Center
01:01PM 38.5564 -79.2183 264° West 141 162 10,000  Level Washington Center
01:02PM 38.5525 -79.2739 265° West 149 171 10,000  Level Washington Center
01:03PM 38.5511 -79.3217 268° West 149 171 10,000  Level Washington Center
01:04PM 38.5475 -79.3719 265° West 144 166 10,000  Level Washington Center
01:05PM 38.5417 -79.4247 262° West 144 166 10,000  Level Washington Center
01:06PM 38.5403 -79.4672 268° West 144 166 10,000  Level Washington Center
01:07PM 38.5344 -79.5200 262° West 144 166 10,000  Level Washington Center
01:08PM 38.5308 -79.5675 264° West 144 166 10,000  Level Washington Center
01:09PM 38.5292 -79.6178 268° West 144 166 10,000  Level Washington Center
01:10PM 38.5250 -79.6733 265° West 144 166 10,000  Level Washington Center
01:11PM 38.5214 -79.7236 265° West 144 166 10,000  Level Washington Center
01:12PM 38.5156 -79.7711 261° West 144 166 10,000  Level Washington Center
01:13PM 38.5136 -79.8214 267° West 144 166 10,000  Level Washington Center
01:14PM 38.5100 -79.8661 264° West 144 166 10,000  Level Washington Center
01:15PM 38.5042 -79.9164 262° West 144 166 10,000  Level Washington Center
01:16PM 38.5022 -79.9692 267° West 144 166 10,000  Level Washington Center
01:17PM 38.4981 -80.0275 265° West 144 166 10,000  Level Washington Center
01:18PM 38.4939 -80.0775 264° West 144 166 10,100  Climbing Washington Center
01:19PM 38.4878 -80.1303 262° West 144 166 10,100  Level Washington Center
01:20PM 38.4858 -80.1833 267° West 144 166 10,100  Level Washington Center
01:21PM 38.4800 -80.2278 260° West 144 166 10,100  Level Washington Center
01:22PM 38.4758 -80.2781 264° West 144 166 10,100  Level Washington Center
01:23PM 38.4717 -80.3308 264° West 144 166 10,100  Level Washington Center
01:24PM 38.4675 -80.3836 264° West 144 166 10,100 -60 Level Washington Center
01:25PM 38.4664 -80.4158 267° West 148 170 10,000 -60 Descending Indianapolis Center
01:26PM 38.4619 -80.4664 264° West 147 169 10,000  Level Indianapolis Center
01:27PM 38.4572 -80.5186 263° West 147 169 10,000  Level Indianapolis Center
01:28PM 38.4531 -80.5806 265° West 147 169 10,000  Level Indianapolis Center
01:29PM 38.4489 -80.6325 264° West 147 169 10,000  Level Indianapolis Center
01:30PM 38.4442 -80.6856 264° West 150 173 10,000  Level Indianapolis Center
01:31PM 38.4394 -80.7383 263° West 150 173 10,000  Level Indianapolis Center
01:32PM 38.4361 -80.7917 265° West 151 174 10,000  Level Indianapolis Center
01:33PM 38.4303 -80.8428 262° West 147 169 10,000  Level Indianapolis Center
01:34PM 38.4275 -80.8944 266° West 145 167 10,000  Level Indianapolis Center
01:35PM 38.4219 -80.9572 264° West 148 170 10,000  Level Indianapolis Center
01:36PM 38.4172 -81.0094 263° West 148 170 10,000  Level Indianapolis Center
01:37PM 38.4133 -81.0617 265° West 148 170 10,000  Level Indianapolis Center
01:38PM 38.4081 -81.1139 263° West 150 173 10,000  Level Indianapolis Center
01:39PM 38.4042 -81.1650 264° West 144 166 10,000  Level Indianapolis Center
01:40PM 38.3992 -81.2175 263° West 148 170 10,000  Level Indianapolis Center
01:41PM 38.3947 -81.2694 264° West 148 170 10,000  Level Indianapolis Center
01:42PM 38.3911 -81.3217 265° West 147 169 10,000  Level Indianapolis Center
01:43PM 38.3853 -81.3833 263° West 146 168 10,000  Level Indianapolis Center
01:45PM 38.3800 -81.4353 263° West 147 169 10,000  Level Indianapolis Center
01:46PM 38.3761 -81.4872 265° West 147 169 10,000  Level Indianapolis Center
01:47PM 38.3708 -81.5389 263° West 147 169 10,000  Level Indianapolis Center
01:48PM 38.3667 -81.5906 264° West 146 168 10,000  Level Indianapolis Center
01:49PM 38.3617 -81.6408 263° West 144 166 10,000  Level Indianapolis Center
01:50PM 38.3578 -81.6919 264° West 143 165 10,000  Level Indianapolis Center
01:51PM 38.3525 -81.7436 263° West 145 167 10,000  Level Indianapolis Center
01:52PM 38.3592 -81.8050 278° West 146 168 10,000  Level Indianapolis Center
01:53PM 38.3719 -81.8569 287° West 153 176 10,000  Level Indianapolis Center
01:54PM 38.3847 -81.9083 288° West 152 175 10,000  Level Indianapolis Center
01:55PM 38.3972 -81.9583 288° West 149 171 10,000  Level Indianapolis Center
01:56PM 38.4092 -82.0094 287° West 150 173 10,000  Level Indianapolis Center
01:57PM 38.4217 -82.0589 288° West 147 169 10,000  Level Indianapolis Center
01:58PM 38.4344 -82.1103 288° West 150 173 10,000  Level Indianapolis Center
01:59PM 38.4469 -82.1617 287° West 151 174 10,000  Level Indianapolis Center
02:00PM 38.4617 -82.2236 287° West 152 175 10,000  Level Indianapolis Center
02:01PM 38.4750 -82.2736 289° West 150 173 10,000  Level Indianapolis Center
02:02PM 38.4869 -82.3239 287° West 148 170 10,000  Level Indianapolis Center
02:03PM 38.4992 -82.3775 286° West 155 178 10,000  Level Indianapolis Center
02:04PM 38.5122 -82.4297 288° West 155 178 10,000  Level Indianapolis Center
02:05PM 38.5250 -82.4803 288° West 151 174 10,000  Level Indianapolis Center
02:06PM 38.5383 -82.5350 287° West 152 175 10,000  Level Indianapolis Center
02:07PM 38.5497 -82.5864 286° West 152 175 10,000  Level Indianapolis Center
02:08PM 38.5647 -82.6475 287° West 155 178 10,000  Level Indianapolis Center
02:09PM 38.5775 -82.7000 287° West 154 177 10,000  Level Indianapolis Center
02:10PM 38.5900 -82.7500 288° West 150 173 10,000  Level Indianapolis Center
02:11PM 38.6019 -82.8028 286° West 153 176 10,000  Level Indianapolis Center
02:12PM 38.6147 -82.8550 287° West 153 176 10,000  Level Indianapolis Center
02:13PM 38.6297 -82.9186 287° West 159 183 10,000  Level Indianapolis Center
02:14PM 38.6414 -82.9703 286° West 154 177 10,000  Level Indianapolis Center
02:15PM 38.6450 -83.0217 275° West 148 170 10,000  Level Indianapolis Center
02:16PM 38.6442 -83.0772 269° West 155 178 10,000  Level Indianapolis Center
02:18PM 38.6458 -83.1306 272° West 152 175 10,000  Level Indianapolis Center
02:19PM 38.6458 -83.1836 270° West 150 173 10,000  Level Indianapolis Center
02:20PM 38.6461 -83.2456 270° West 150 173 10,000  Level Indianapolis Center
02:21PM 38.6467 -83.3017 271° West 155 178 10,000  Level Indianapolis Center
02:22PM 38.6472 -83.3544 271° West 151 174 10,000  Level Indianapolis Center
02:23PM 38.6475 -83.4131 270° West 151 174 10,000  Level Indianapolis Center
02:24PM 38.6481 -83.4686 271° West 154 177 10,000  Level Indianapolis Center
02:25PM 38.6478 -83.5253 270° West 149 171 10,000  Level Indianapolis Center
02:26PM 38.6478 -83.5744 270° West 150 173 10,000  Level Indianapolis Center
02:27PM 38.6489 -83.6303 271° West 156 180 10,000  Level Indianapolis Center
02:28PM 38.6492 -83.6831 270° West 150 173 10,000  Level Indianapolis Center
02:29PM 38.6492 -83.7472 270° West 151 174 10,000  Level Indianapolis Center
02:30PM 38.6489 -83.8031 270° West 154 177 10,100  Climbing Indianapolis Center
02:31PM 38.6492 -83.8556 270° West 149 171 10,000  Descending Indianapolis Center
02:32PM 38.6492 -83.9089 270° West 150 173 10,100  Climbing Indianapolis Center
02:33PM 38.6489 -83.9639 270° West 151 174 10,000 -60 Descending Indianapolis Center
02:34PM 38.6492 -84.0197 270° West 154 177 10,000  Level Indianapolis Center
02:35PM 38.6494 -84.0811 270° West 151 174 10,000  Level Indianapolis Center
02:36PM 38.6492 -84.1347 270° West 150 173 10,100  Climbing Indianapolis Center
02:37PM 38.6494 -84.1908 270° West 155 178 10,000 -60 Descending Indianapolis Center
02:38PM 38.6497 -84.2464 270° West 155 178 10,000  Level Indianapolis Center
02:39PM 38.6500 -84.2997 270° West 152 175 10,000  Level Indianapolis Center
02:40PM 38.6478 -84.3558 267° West 156 180 10,000  Level Indianapolis Center
02:41PM 38.6450 -84.4194 267° West 153 176 10,100  Climbing Indianapolis Center
02:42PM 38.6419 -84.4733 266° West 153 176 10,000 -60 Descending Indianapolis Center
02:43PM 38.6403 -84.5300 268° West 157 181 10,000  Level Indianapolis Center
02:44PM 38.6361 -84.5847 264° West 156 180 10,000  Level Indianapolis Center
02:45PM 38.6344 -84.6464 268° West 151 174 10,000  Level Indianapolis Center
02:46PM 38.6331 -84.7019 268° West 155 178 10,000  Level Indianapolis Center
02:47PM 38.6303 -84.7547 266° West 150 173 10,000  Level Indianapolis Center
02:49PM 38.6267 -84.8122 265° West 159 183 10,000  Level Indianapolis Center
02:50PM 38.6253 -84.8669 268° West 156 180 10,100  Climbing Indianapolis Center
02:51PM 38.6231 -84.9219 267° West 155 178 10,000 -60 Descending Indianapolis Center
02:52PM 38.6203 -84.9869 267° West 156 180 10,000  Level Indianapolis Center
02:53PM 38.6167 -85.0428 265° West 156 180 10,000  Level Indianapolis Center
02:54PM 38.6147 -85.0981 267° West 157 181 10,000  Level Indianapolis Center
02:55PM 38.6117 -85.1539 266° West 157 181 10,000  Level Indianapolis Center
02:56PM 38.6083 -85.2117 266° West 156 180 10,000  Level Indianapolis Center
02:57PM 38.6067 -85.2675 268° West 156 180 10,000  Level Indianapolis Center
02:58PM 38.6053 -85.3225 268° West 155 178 10,000  Level Indianapolis Center
02:59PM 38.6019 -85.3786 266° West 157 181 10,000  Level Indianapolis Center
03:00PM 38.5981 -85.4344 265° West 157 181 10,000  Level Indianapolis Center
03:01PM 38.5964 -85.4992 268° West 152 175 10,000  Level Indianapolis Center
03:02PM 38.5928 -85.5556 265° West 157 181 10,000  Level Indianapolis Center
03:03PM 38.5897 -85.6106 266° West 155 178 10,000  Level Indianapolis Center
03:04PM 38.5869 -85.6658 266° West 156 180 10,000  Level Indianapolis Center
03:05PM 38.5861 -85.7197 269° West 153 176 10,000  Level Indianapolis Center
03:06PM 38.5844 -85.7722 268° West 149 171 10,000  Level Indianapolis Center
03:07PM 38.5833 -85.8256 268° West 149 171 10,000  Level Indianapolis Center
03:08PM 38.5806 -85.8886 267° West 148 170 10,000  Level Indianapolis Center
03:09PM 38.5789 -85.9428 268° West 150 173 10,000  Level Indianapolis Center
03:10PM 38.5764 -85.9978 267° West 153 176 10,000  Level Indianapolis Center
03:11PM 38.5750 -86.0497 268° West 149 171 10,000  Level Indianapolis Center
03:12PM 38.5736 -86.1050 268° West 153 176 10,000  Level Indianapolis Center
03:13PM 38.5711 -86.1603 267° West 155 178 10,000  Level Indianapolis Center
03:14PM 38.5683 -86.2136 266° West 152 175 10,000  Level Indianapolis Center
03:15PM 38.5664 -86.2797 268° West 153 176 10,000  Level Indianapolis Center
03:16PM 38.5647 -86.3336 268° West 152 175 10,000  Level Indianapolis Center
03:17PM 38.5625 -86.3881 267° West 153 176 10,000  Level Indianapolis Center
03:18PM 38.5600 -86.4428 267° West 154 177 10,000  Level Indianapolis Center
03:20PM 38.5586 -86.4983 268° West 155 178 10,000  Level Indianapolis Center
03:21PM 38.5561 -86.5536 267° West 155 178 10,000  Level Indianapolis Center
03:22PM 38.5542 -86.6089 267° West 155 178 10,000  Level Indianapolis Center
03:23PM 38.5511 -86.6744 267° West 154 177 10,000  Level Indianapolis Center
03:24PM 38.5486 -86.7286 267° West 154 177 10,000  Level Indianapolis Center
03:25PM 38.5467 -86.7836 267° West 154 177 10,000  Level Indianapolis Center
03:26PM 38.5442 -86.8389 267° West 155 178 10,000  Level Indianapolis Center
03:27PM 38.5419 -86.8956 267° West 159 183 10,000  Level Indianapolis Center
03:28PM 38.5397 -86.9514 267° West 158 182 10,000  Level Indianapolis Center
03:29PM 38.5364 -87.0178 266° West 157 181 10,000  Level Indianapolis Center
03:30PM 38.5342 -87.0719 267° West 155 178 10,000  Level Indianapolis Center
03:31PM 38.5314 -87.1269 266° West 155 178 10,000  Level Indianapolis Center
03:32PM 38.5294 -87.1819 267° West 156 180 10,000  Level Indianapolis Center
03:33PM 38.5269 -87.2364 267° West 155 178 10,000  Level Indianapolis Center
03:34PM 38.5239 -87.2908 266° West 155 178 10,000  Level Indianapolis Center
03:35PM 38.5211 -87.3558 267° West 153 176 10,000  Level Indianapolis Center
03:36PM 38.5186 -87.4106 267° West 154 177 10,000  Level Indianapolis Center
03:37PM 38.5158 -87.4650 266° West 154 177 10,000  Level Indianapolis Center
03:38PM 38.5133 -87.5206 267° West 156 180 10,000  Level Indianapolis Center
03:39PM 38.5108 -87.5758 267° West 155 178 10,000  Level Indianapolis Center
03:40PM 38.5083 -87.6303 267° West 155 178 10,000  Level Indianapolis Center
03:41PM 38.5058 -87.6867 267° West 156 180 10,000  Level Indianapolis Center
03:42PM 38.5022 -87.7528 266° West 156 180 10,000  Level Indianapolis Center
03:43PM 38.4994 -87.8089 266° West 157 181 10,000  Level Indianapolis Center
03:44PM 38.4969 -87.8644 267° West 157 181 10,000  Level Indianapolis Center
03:45PM 38.4942 -87.9219 266° West 160 184 10,000  Level Indianapolis Center
03:46PM 38.4914 -87.9778 266° West 159 183 10,000  Level Indianapolis Center
03:47PM 38.4872 -88.0336 265° West 158 182 10,000  Level Indianapolis Center
03:48PM 38.4847 -88.0911 267° West 161 185 10,000  Level Indianapolis Center
03:49PM 38.4811 -88.1569 266° West 156 180 10,000  Level Indianapolis Center
03:51PM 38.4778 -88.2256 266° West 160 184 10,000  Level Kansas City Center
03:52PM 38.4753 -88.2817 267° West 159 183 10,000  Level Kansas City Center
03:53PM 38.4731 -88.3386 267° West 160 184 10,000  Level Kansas City Center
03:54PM 38.4689 -88.3958 265° West 161 185 10,000  Level Kansas City Center
03:55PM 38.4650 -88.4531 265° West 162 186 10,000  Level Kansas City Center
03:56PM 38.4606 -88.5106 264° West 163 188 10,000  Level Kansas City Center
03:57PM 38.4558 -88.5686 264° West 164 189 10,000  Level Kansas City Center
03:58PM 38.4519 -88.6372 266° West 162 186 10,000  Level Kansas City Center
03:59PM 38.4478 -88.7006 265° West 163 188 10,100  Climbing Kansas City Center
04:00PM 38.4439 -88.7581 265° West 164 189 10,000 -60 Descending Kansas City Center
04:01PM 38.4408 -88.8147 266° West 162 186 10,000  Level Kansas City Center
04:02PM 38.4375 -88.8758 266° West 160 184 10,000  Level Kansas City Center
04:03PM 38.4333 -88.9339 265° West 163 188 10,000  Level Kansas City Center
04:04PM 38.4294 -88.9961 265° West 164 189 10,000  Level Kansas City Center
04:05PM 38.4258 -89.0539 265° West 164 189 10,000 -300 Level Kansas City Center
04:06PM 38.4219 -89.1192 266° West 171 197 9,500 -540 Descending Kansas City Center
04:07PM 38.4236 -89.1847 272° West 184 212 8,900 -600 Descending Kansas City Center
04:08PM 38.4442 -89.2464 293° West 187 215 8,300 -600 Descending Kansas City Center
04:09PM 38.4628 -89.3117 290° West 182 209 7,700 -540 Descending Kansas City Center
04:10PM 38.4792 -89.3700 290° West 177 204 7,200 -360 Descending Kansas City Center
04:11PM 38.4964 -89.4322 289° West 173 199 7,000 -300 Descending Kansas City Center
04:12PM 38.5025 -89.4878 278° West 161 185 6,700 -480 Descending Kansas City Center
04:13PM 38.5042 -89.5533 272° West 170 196 6,100 -540 Descending Kansas City Center
04:15PM 38.5058 -89.6144 272° West 172 198 5,600 -480 Descending Kansas City Center
04:16PM 38.5064 -89.6778 271° West 178 205 5,200 -480 Descending Kansas City Center
04:17PM 38.5064 -89.7375 270° West 179 206 4,700 -480 Descending Kansas City Center
04:18PM 38.5069 -89.8047 271° West 184 212 4,200 -360 Descending Kansas City Center
04:19PM 38.5114 -89.8800 274° West 182 209 4,000 -120 Descending Kansas City Center
04:20PM 38.5133 -89.9375 272° West 173 199 4,000  Level Kansas City Center
04:21PM 38.5147 -89.9953 272° West 167 192 4,000  Level Kansas City Center
04:22PM 38.5169 -90.0544 273° West 166 191 4,000  Level Kansas City Center
04:23PM 38.5372 -90.1058 297° West 165 190 4,000  Level Kansas City Center
04:24PM 38.5606 -90.1567 300° West 165 190 4,000  Level Kansas City Center
04:25PM 38.5883 -90.2133 302° West 162 186 4,000  Level Kansas City Center
04:26PM 38.6106 -90.2625 300° West 160 184 4,000 -300 Level Kansas City Center
04:27PM 38.6336 -90.3114 301° West 160 184 3,400 -600 Descending Kansas City Center
04:28PM 38.6583 -90.3633 301° West 164 189 2,800 -600 Descending Kansas City Center
04:29PM 38.6847 -90.4192 301° West 170 196 2,200 -600 Descending Kansas City Center
04:30PM 38.7100 -90.4725 301° West 172 198 1,600 -420 Descending Kansas City Center
04:31PM 38.7367 -90.5131 310° West 162 186 1,400 -60 Descending Kansas City Center
04:32PM 38.7081 -90.5289 203° Southwest 152 175 1,500 -300 Climbing Kansas City Center
04:33PM 38.7072 -90.5022 92° East 126 145 800 -480 Descending Kansas City Center
04:34PM 38.7272 -90.5117 340° North 112 129 600 -240 Descending Kansas City Center